Terminal Aerodrome Forecast
Issued by NWS

Home | Current Version | Previous Version | Text Only | Print | Product List | Glossary On
Versions: 1 2 3 4 5 6 7 8 9 10 11 12 13 14 15 16
000
FTUS42 KTBW 202330
TAFPGD
TAF
KPGD 202330Z 2100/2124 12009KT P6SM FEW050
     FM210900 09005KT 6SM BR SCT020
      TEMPO 2110/2113 4SM BR BKN015
     FM211400 11010KT P6SM SCT025
     FM211600 12012G18KT P6SM SCT035
     FM212100 10010KT P6SM FEW050=

USA.gov is the U.S. government's official web portal to all federal, state and local government web resources and services.